sensor_id;sensor_type;location;lat;lon;timestamp;P1;durP1;ratioP1;P2;durP2;ratioP2
63259;SDS011;49390;51.380;0.098;2023-10-19T00:01:22;6.57;;;2.17;;
63259;SDS011;49390;51.380;0.098;2023-10-19T00:03:53;4.45;;;1.52;;
63259;SDS011;49390;51.380;0.098;2023-10-19T00:06:23;9.25;;;1.88;;
63259;SDS011;49390;51.380;0.098;2023-10-19T00:08:51;5.90;;;2.05;;
63259;SDS011;49390;51.380;0.098;2023-10-19T00:11:20;9.00;;;2.10;;
63259;SDS011;49390;51.380;0.098;2023-10-19T00:13:54;12.90;;;2.58;;
63259;SDS011;49390;51.380;0.098;2023-10-19T00:16:25;7.38;;;2.20;;
63259;SDS011;49390;51.380;0.098;2023-10-19T00:21:27;7.03;;;2.00;;
63259;SDS011;49390;51.380;0.098;2023-10-19T00:23:58;10.73;;;3.45;;
63259;SDS011;49390;51.380;0.098;2023-10-19T00:26:32;11.95;;;2.30;;
63259;SDS011;49390;51.380;0.098;2023-10-19T00:29:00;8.57;;;2.20;;
63259;SDS011;49390;51.380;0.098;2023-10-19T00:31:42;11.35;;;2.38;;
63259;SDS011;49390;51.380;0.098;2023-10-19T00:34:11;7.22;;;2.13;;
63259;SDS011;49390;51.380;0.098;2023-10-19T00:36:41;10.25;;;2.72;;
63259;SDS011;49390;51.380;0.098;2023-10-19T00:39:09;7.90;;;2.08;;
63259;SDS011;49390;51.380;0.098;2023-10-19T00:41:48;13.52;;;3.35;;
63259;SDS011;49390;51.380;0.098;2023-10-19T00:44:17;9.43;;;2.58;;
63259;SDS011;49390;51.380;0.098;2023-10-19T00:47:03;7.95;;;2.25;;
63259;SDS011;49390;51.380;0.098;2023-10-19T00:49:34;7.47;;;2.25;;
63259;SDS011;49390;51.380;0.098;2023-10-19T00:52:04;8.00;;;1.95;;
63259;SDS011;49390;51.380;0.098;2023-10-19T00:54:47;8.13;;;2.10;;
63259;SDS011;49390;51.380;0.098;2023-10-19T00:57:19;10.65;;;2.70;;
63259;SDS011;49390;51.380;0.098;2023-10-19T00:59:47;7.15;;;2.58;;
63259;SDS011;49390;51.380;0.098;2023-10-19T01:02:18;6.75;;;1.75;;
63259;SDS011;49390;51.380;0.098;2023-10-19T01:04:56;7.18;;;2.10;;
63259;SDS011;49390;51.380;0.098;2023-10-19T01:07:29;6.90;;;1.80;;
63259;SDS011;49390;51.380;0.098;2023-10-19T01:09:58;6.20;;;2.10;;
63259;SDS011;49390;51.380;0.098;2023-10-19T01:12:28;9.85;;;2.33;;
63259;SDS011;49390;51.380;0.098;2023-10-19T01:17:55;8.50;;;2.15;;
63259;SDS011;49390;51.380;0.098;2023-10-19T01:20:25;5.32;;;2.10;;
63259;SDS011;49390;51.380;0.098;2023-10-19T01:23:33;8.57;;;2.10;;
63259;SDS011;49390;51.380;0.098;2023-10-19T01:26:03;9.80;;;1.95;;
63259;SDS011;49390;51.380;0.098;2023-10-19T01:28:36;7.35;;;2.15;;
63259;SDS011;49390;51.380;0.098;2023-10-19T01:33:49;8.23;;;1.98;;
63259;SDS011;49390;51.380;0.098;2023-10-19T01:36:18;5.35;;;1.75;;
63259;SDS011;49390;51.380;0.098;2023-10-19T01:38:55;8.27;;;1.80;;
63259;SDS011;49390;51.380;0.098;2023-10-19T01:41:29;5.10;;;1.70;;
63259;SDS011;49390;51.380;0.098;2023-10-19T01:43:58;9.95;;;2.20;;
63259;SDS011;49390;51.380;0.098;2023-10-19T01:46:35;5.00;;;2.20;;
63259;SDS011;49390;51.380;0.098;2023-10-19T01:49:04;8.05;;;2.22;;
63259;SDS011;49390;51.380;0.098;2023-10-19T01:51:33;4.15;;;1.85;;
63259;SDS011;49390;51.380;0.098;2023-10-19T01:54:06;3.78;;;1.98;;
63259;SDS011;49390;51.380;0.098;2023-10-19T01:56:35;4.85;;;1.75;;
63259;SDS011;49390;51.380;0.098;2023-10-19T01:59:06;6.28;;;1.88;;
63259;SDS011;49390;51.380;0.098;2023-10-19T02:01:36;4.38;;;1.75;;
63259;SDS011;49390;51.380;0.098;2023-10-19T02:04:05;3.92;;;1.98;;
63259;SDS011;49390;51.380;0.098;2023-10-19T02:06:37;7.28;;;1.90;;
63259;SDS011;49390;51.380;0.098;2023-10-19T02:09:07;7.82;;;1.95;;
63259;SDS011;49390;51.380;0.098;2023-10-19T02:11:46;10.45;;;2.22;;
63259;SDS011;49390;51.380;0.098;2023-10-19T02:14:17;4.68;;;2.10;;
63259;SDS011;49390;51.380;0.098;2023-10-19T02:16:50;6.25;;;1.75;;
63259;SDS011;49390;51.380;0.098;2023-10-19T02:19:27;4.93;;;2.15;;
63259;SDS011;49390;51.380;0.098;2023-10-19T02:21:57;8.80;;;2.20;;
63259;SDS011;49390;51.380;0.098;2023-10-19T02:24:26;6.35;;;2.00;;
63259;SDS011;49390;51.380;0.098;2023-10-19T02:26:55;5.75;;;1.77;;
63259;SDS011;49390;51.380;0.098;2023-10-19T02:29:24;7.13;;;1.70;;
63259;SDS011;49390;51.380;0.098;2023-10-19T02:34:15;3.83;;;2.00;;
63259;SDS011;49390;51.380;0.098;2023-10-19T02:36:44;4.63;;;1.70;;
63259;SDS011;49390;51.380;0.098;2023-10-19T02:39:13;6.05;;;1.50;;
63259;SDS011;49390;51.380;0.098;2023-10-19T02:41:44;4.10;;;1.90;;
63259;SDS011;49390;51.380;0.098;2023-10-19T02:44:17;5.75;;;2.60;;
63259;SDS011;49390;51.380;0.098;2023-10-19T02:46:47;5.95;;;1.70;;
63259;SDS011;49390;51.380;0.098;2023-10-19T02:49:21;6.68;;;2.13;;
63259;SDS011;49390;51.380;0.098;2023-10-19T02:51:50;6.55;;;1.85;;
63259;SDS011;49390;51.380;0.098;2023-10-19T02:54:20;8.38;;;2.10;;
63259;SDS011;49390;51.380;0.098;2023-10-19T02:56:51;7.32;;;2.40;;
63259;SDS011;49390;51.380;0.098;2023-10-19T02:59:21;8.15;;;2.40;;
63259;SDS011;49390;51.380;0.098;2023-10-19T03:01:52;8.43;;;2.53;;
63259;SDS011;49390;51.380;0.098;2023-10-19T03:04:29;12.27;;;2.85;;
63259;SDS011;49390;51.380;0.098;2023-10-19T03:06:58;10.32;;;2.92;;
63259;SDS011;49390;51.380;0.098;2023-10-19T03:09:26;11.38;;;3.22;;
63259;SDS011;49390;51.380;0.098;2023-10-19T03:11:54;7.72;;;2.30;;
63259;SDS011;49390;51.380;0.098;2023-10-19T03:14:31;8.20;;;2.38;;
63259;SDS011;49390;51.380;0.098;2023-10-19T03:17:00;11.63;;;2.50;;
63259;SDS011;49390;51.380;0.098;2023-10-19T03:19:28;5.95;;;2.25;;
63259;SDS011;49390;51.380;0.098;2023-10-19T03:21:57;10.45;;;2.65;;
63259;SDS011;49390;51.380;0.098;2023-10-19T03:24:27;10.52;;;2.65;;
63259;SDS011;49390;51.380;0.098;2023-10-19T03:27:05;10.02;;;3.22;;
63259;SDS011;49390;51.380;0.098;2023-10-19T03:29:49;11.98;;;3.58;;
63259;SDS011;49390;51.380;0.098;2023-10-19T03:32:23;12.15;;;2.45;;
63259;SDS011;49390;51.380;0.098;2023-10-19T03:34:56;11.70;;;3.13;;
63259;SDS011;49390;51.380;0.098;2023-10-19T03:37:28;10.07;;;3.00;;
63259;SDS011;49390;51.380;0.098;2023-10-19T03:39:59;12.85;;;3.08;;
63259;SDS011;49390;51.380;0.098;2023-10-19T03:42:31;10.55;;;3.47;;
63259;SDS011;49390;51.380;0.098;2023-10-19T03:45:00;9.55;;;2.92;;
63259;SDS011;49390;51.380;0.098;2023-10-19T03:47:40;9.18;;;2.97;;
63259;SDS011;49390;51.380;0.098;2023-10-19T03:50:11;13.15;;;2.70;;
63259;SDS011;49390;51.380;0.098;2023-10-19T03:52:43;9.38;;;2.70;;
63259;SDS011;49390;51.380;0.098;2023-10-19T03:55:12;15.18;;;3.20;;
63259;SDS011;49390;51.380;0.098;2023-10-19T03:57:46;10.90;;;3.55;;
63259;SDS011;49390;51.380;0.098;2023-10-19T04:00:17;14.63;;;3.00;;
63259;SDS011;49390;51.380;0.098;2023-10-19T04:02:52;11.65;;;3.35;;
63259;SDS011;49390;51.380;0.098;2023-10-19T04:05:21;10.10;;;3.00;;
63259;SDS011;49390;51.380;0.098;2023-10-19T04:07:53;11.20;;;3.22;;
63259;SDS011;49390;51.380;0.098;2023-10-19T04:10:25;9.98;;;3.95;;
63259;SDS011;49390;51.380;0.098;2023-10-19T04:13:19;9.85;;;2.90;;
63259;SDS011;49390;51.380;0.098;2023-10-19T04:15:47;15.73;;;3.22;;
63259;SDS011;49390;51.380;0.098;2023-10-19T04:18:17;11.43;;;3.42;;
63259;SDS011;49390;51.380;0.098;2023-10-19T04:20:45;15.60;;;3.10;;
63259;SDS011;49390;51.380;0.098;2023-10-19T04:23:23;10.70;;;3.50;;
63259;SDS011;49390;51.380;0.098;2023-10-19T04:25:55;10.02;;;2.50;;
63259;SDS011;49390;51.380;0.098;2023-10-19T04:28:33;9.88;;;3.22;;
63259;SDS011;49390;51.380;0.098;2023-10-19T04:31:06;14.82;;;2.90;;
63259;SDS011;49390;51.380;0.098;2023-10-19T04:33:34;10.13;;;2.88;;
63259;SDS011;49390;51.380;0.098;2023-10-19T04:36:03;13.57;;;3.20;;
63259;SDS011;49390;51.380;0.098;2023-10-19T04:38:36;12.32;;;3.47;;
63259;SDS011;49390;51.380;0.098;2023-10-19T04:41:05;9.68;;;2.80;;
63259;SDS011;49390;51.380;0.098;2023-10-19T04:43:37;8.95;;;3.15;;
63259;SDS011;49390;51.380;0.098;2023-10-19T04:46:10;12.25;;;2.78;;
63259;SDS011;49390;51.380;0.098;2023-10-19T04:48:39;10.95;;;2.78;;
63259;SDS011;49390;51.380;0.098;2023-10-19T04:51:10;9.93;;;2.97;;
63259;SDS011;49390;51.380;0.098;2023-10-19T04:53:38;12.52;;;2.83;;
63259;SDS011;49390;51.380;0.098;2023-10-19T04:56:07;12.80;;;2.65;;
63259;SDS011;49390;51.380;0.098;2023-10-19T04:58:40;10.13;;;2.90;;
63259;SDS011;49390;51.380;0.098;2023-10-19T05:01:08;8.63;;;2.88;;
63259;SDS011;49390;51.380;0.098;2023-10-19T05:03:39;9.60;;;3.20;;
63259;SDS011;49390;51.380;0.098;2023-10-19T05:06:07;11.18;;;3.08;;
63259;SDS011;49390;51.380;0.098;2023-10-19T05:08:37;12.95;;;3.25;;
63259;SDS011;49390;51.380;0.098;2023-10-19T05:11:05;12.95;;;3.72;;
63259;SDS011;49390;51.380;0.098;2023-10-19T05:13:33;15.45;;;3.40;;
63259;SDS011;49390;51.380;0.098;2023-10-19T05:16:02;12.40;;;3.90;;
63259;SDS011;49390;51.380;0.098;2023-10-19T05:18:31;11.73;;;3.10;;
63259;SDS011;49390;51.380;0.098;2023-10-19T05:20:59;13.93;;;2.80;;
63259;SDS011;49390;51.380;0.098;2023-10-19T05:23:30;11.73;;;3.42;;
63259;SDS011;49390;51.380;0.098;2023-10-19T05:26:02;12.68;;;3.30;;
63259;SDS011;49390;51.380;0.098;2023-10-19T05:28:32;16.70;;;3.67;;
63259;SDS011;49390;51.380;0.098;2023-10-19T05:31:00;10.25;;;3.53;;
63259;SDS011;49390;51.380;0.098;2023-10-19T05:33:28;13.95;;;3.35;;
63259;SDS011;49390;51.380;0.098;2023-10-19T05:35:57;12.68;;;3.15;;
63259;SDS011;49390;51.380;0.098;2023-10-19T05:38:25;13.00;;;3.38;;
63259;SDS011;49390;51.380;0.098;2023-10-19T05:40:56;15.30;;;3.90;;
63259;SDS011;49390;51.380;0.098;2023-10-19T05:43:25;10.53;;;3.77;;
63259;SDS011;49390;51.380;0.098;2023-10-19T05:45:53;15.00;;;3.83;;
63259;SDS011;49390;51.380;0.098;2023-10-19T05:48:22;14.30;;;3.42;;
63259;SDS011;49390;51.380;0.098;2023-10-19T05:50:51;10.68;;;2.88;;
63259;SDS011;49390;51.380;0.098;2023-10-19T05:53:21;13.45;;;3.40;;
63259;SDS011;49390;51.380;0.098;2023-10-19T05:55:50;12.03;;;3.73;;
63259;SDS011;49390;51.380;0.098;2023-10-19T05:58:18;16.00;;;3.83;;
63259;SDS011;49390;51.380;0.098;2023-10-19T06:00:47;8.55;;;3.22;;
63259;SDS011;49390;51.380;0.098;2023-10-19T06:03:19;16.70;;;3.38;;
63259;SDS011;49390;51.380;0.098;2023-10-19T06:05:48;13.30;;;3.67;;
63259;SDS011;49390;51.380;0.098;2023-10-19T06:08:16;8.82;;;3.10;;
63259;SDS011;49390;51.380;0.098;2023-10-19T06:10:48;12.05;;;3.28;;
63259;SDS011;49390;51.380;0.098;2023-10-19T06:13:19;11.02;;;3.17;;
63259;SDS011;49390;51.380;0.098;2023-10-19T06:15:49;10.48;;;3.00;;
63259;SDS011;49390;51.380;0.098;2023-10-19T06:18:19;12.95;;;4.50;;
63259;SDS011;49390;51.380;0.098;2023-10-19T06:20:47;10.50;;;3.45;;
63259;SDS011;49390;51.380;0.098;2023-10-19T06:23:19;10.63;;;3.10;;
63259;SDS011;49390;51.380;0.098;2023-10-19T06:25:47;14.82;;;3.63;;
63259;SDS011;49390;51.380;0.098;2023-10-19T06:28:16;10.73;;;3.05;;
63259;SDS011;49390;51.380;0.098;2023-10-19T06:30:44;9.00;;;2.88;;
63259;SDS011;49390;51.380;0.098;2023-10-19T06:33:12;12.95;;;3.95;;
63259;SDS011;49390;51.380;0.098;2023-10-19T06:35:41;12.18;;;3.17;;
63259;SDS011;49390;51.380;0.098;2023-10-19T06:38:09;13.73;;;3.85;;
63259;SDS011;49390;51.380;0.098;2023-10-19T06:40:37;14.43;;;3.38;;
63259;SDS011;49390;51.380;0.098;2023-10-19T06:43:05;11.23;;;3.10;;
63259;SDS011;49390;51.380;0.098;2023-10-19T06:45:33;14.45;;;3.60;;
63259;SDS011;49390;51.380;0.098;2023-10-19T06:48:02;13.05;;;3.47;;
63259;SDS011;49390;51.380;0.098;2023-10-19T06:50:31;13.63;;;3.30;;
63259;SDS011;49390;51.380;0.098;2023-10-19T06:53:00;11.88;;;3.60;;
63259;SDS011;49390;51.380;0.098;2023-10-19T06:55:27;14.80;;;3.63;;
63259;SDS011;49390;51.380;0.098;2023-10-19T06:57:56;12.45;;;4.03;;
63259;SDS011;49390;51.380;0.098;2023-10-19T07:00:24;10.10;;;3.15;;
63259;SDS011;49390;51.380;0.098;2023-10-19T07:02:57;16.42;;;3.38;;
63259;SDS011;49390;51.380;0.098;2023-10-19T07:05:28;12.90;;;3.20;;
63259;SDS011;49390;51.380;0.098;2023-10-19T07:08:02;11.23;;;3.30;;
63259;SDS011;49390;51.380;0.098;2023-10-19T07:10:34;10.45;;;3.13;;
63259;SDS011;49390;51.380;0.098;2023-10-19T07:13:02;13.55;;;3.72;;
63259;SDS011;49390;51.380;0.098;2023-10-19T07:15:30;14.75;;;3.67;;
63259;SDS011;49390;51.380;0.098;2023-10-19T07:17:59;14.20;;;3.15;;
63259;SDS011;49390;51.380;0.098;2023-10-19T07:20:27;11.95;;;3.38;;
63259;SDS011;49390;51.380;0.098;2023-10-19T07:23:03;16.05;;;3.35;;
63259;SDS011;49390;51.380;0.098;2023-10-19T07:25:45;15.15;;;3.72;;
63259;SDS011;49390;51.380;0.098;2023-10-19T07:28:23;12.20;;;3.25;;
63259;SDS011;49390;51.380;0.098;2023-10-19T07:30:54;11.80;;;3.40;;
63259;SDS011;49390;51.380;0.098;2023-10-19T07:33:24;10.35;;;3.00;;
63259;SDS011;49390;51.380;0.098;2023-10-19T07:35:53;10.60;;;3.10;;
63259;SDS011;49390;51.380;0.098;2023-10-19T07:38:28;13.43;;;3.38;;
63259;SDS011;49390;51.380;0.098;2023-10-19T07:40:58;16.00;;;3.20;;
63259;SDS011;49390;51.380;0.098;2023-10-19T07:43:29;9.70;;;2.85;;
63259;SDS011;49390;51.380;0.098;2023-10-19T07:45:56;13.98;;;4.22;;
63259;SDS011;49390;51.380;0.098;2023-10-19T07:48:25;11.70;;;3.35;;
63259;SDS011;49390;51.380;0.098;2023-10-19T07:50:53;7.68;;;2.63;;
63259;SDS011;49390;51.380;0.098;2023-10-19T07:53:22;8.88;;;2.70;;
63259;SDS011;49390;51.380;0.098;2023-10-19T07:55:51;9.57;;;2.78;;
63259;SDS011;49390;51.380;0.098;2023-10-19T07:58:20;10.63;;;2.80;;
63259;SDS011;49390;51.380;0.098;2023-10-19T08:00:48;10.60;;;3.13;;
63259;SDS011;49390;51.380;0.098;2023-10-19T08:03:16;11.40;;;2.97;;
63259;SDS011;49390;51.380;0.098;2023-10-19T08:05:45;9.10;;;3.22;;
63259;SDS011;49390;51.380;0.098;2023-10-19T08:08:13;12.00;;;3.20;;
63259;SDS011;49390;51.380;0.098;2023-10-19T08:10:41;9.55;;;3.10;;
63259;SDS011;49390;51.380;0.098;2023-10-19T08:13:10;7.45;;;2.55;;
63259;SDS011;49390;51.380;0.098;2023-10-19T08:15:40;7.47;;;2.50;;
63259;SDS011;49390;51.380;0.098;2023-10-19T08:18:08;8.68;;;2.80;;
63259;SDS011;49390;51.380;0.098;2023-10-19T08:20:40;9.35;;;2.65;;
63259;SDS011;49390;51.380;0.098;2023-10-19T08:23:08;9.93;;;2.83;;
63259;SDS011;49390;51.380;0.098;2023-10-19T08:25:36;8.98;;;3.13;;
63259;SDS011;49390;51.380;0.098;2023-10-19T08:28:22;10.63;;;2.78;;
63259;SDS011;49390;51.380;0.098;2023-10-19T08:30:50;9.73;;;3.15;;
63259;SDS011;49390;51.380;0.098;2023-10-19T08:33:26;10.55;;;2.95;;
63259;SDS011;49390;51.380;0.098;2023-10-19T08:35:55;12.30;;;3.15;;
63259;SDS011;49390;51.380;0.098;2023-10-19T08:38:28;10.68;;;2.95;;
63259;SDS011;49390;51.380;0.098;2023-10-19T08:40:56;10.82;;;3.00;;
63259;SDS011;49390;51.380;0.098;2023-10-19T08:43:26;11.07;;;2.90;;
63259;SDS011;49390;51.380;0.098;2023-10-19T08:45:58;11.98;;;3.08;;
63259;SDS011;49390;51.380;0.098;2023-10-19T08:48:27;9.98;;;2.90;;
63259;SDS011;49390;51.380;0.098;2023-10-19T08:50:58;8.27;;;2.40;;
63259;SDS011;49390;51.380;0.098;2023-10-19T08:53:26;14.40;;;2.88;;
63259;SDS011;49390;51.380;0.098;2023-10-19T08:55:56;10.75;;;2.80;;
63259;SDS011;49390;51.380;0.098;2023-10-19T08:58:25;10.25;;;3.03;;
63259;SDS011;49390;51.380;0.098;2023-10-19T09:00:55;9.10;;;3.40;;
63259;SDS011;49390;51.380;0.098;2023-10-19T09:03:24;12.95;;;3.25;;
63259;SDS011;49390;51.380;0.098;2023-10-19T09:05:54;13.13;;;3.33;;
63259;SDS011;49390;51.380;0.098;2023-10-19T09:10:51;9.57;;;3.15;;
63259;SDS011;49390;51.380;0.098;2023-10-19T09:13:24;9.30;;;3.10;;
63259;SDS011;49390;51.380;0.098;2023-10-19T09:15:53;13.30;;;3.35;;
63259;SDS011;49390;51.380;0.098;2023-10-19T09:18:24;13.77;;;3.67;;
63259;SDS011;49390;51.380;0.098;2023-10-19T09:20:56;15.45;;;4.95;;
63259;SDS011;49390;51.380;0.098;2023-10-19T09:23:35;9.70;;;3.55;;
63259;SDS011;49390;51.380;0.098;2023-10-19T09:26:04;10.32;;;3.20;;
63259;SDS011;49390;51.380;0.098;2023-10-19T09:28:35;11.60;;;3.67;;
63259;SDS011;49390;51.380;0.098;2023-10-19T09:31:05;8.03;;;3.40;;
63259;SDS011;49390;51.380;0.098;2023-10-19T09:33:38;10.70;;;3.10;;
63259;SDS011;49390;51.380;0.098;2023-10-19T09:36:09;8.35;;;3.53;;
63259;SDS011;49390;51.380;0.098;2023-10-19T09:38:45;10.35;;;3.35;;
63259;SDS011;49390;51.380;0.098;2023-10-19T09:41:19;8.55;;;3.35;;
63259;SDS011;49390;51.380;0.098;2023-10-19T09:44:01;7.32;;;3.45;;
63259;SDS011;49390;51.380;0.098;2023-10-19T09:46:34;13.30;;;3.80;;
63259;SDS011;49390;51.380;0.098;2023-10-19T09:49:06;16.17;;;4.38;;
63259;SDS011;49390;51.380;0.098;2023-10-19T09:51:39;10.88;;;3.58;;
63259;SDS011;49390;51.380;0.098;2023-10-19T09:54:32;9.63;;;3.50;;
63259;SDS011;49390;51.380;0.098;2023-10-19T09:57:10;11.75;;;3.92;;
63259;SDS011;49390;51.380;0.098;2023-10-19T09:59:45;12.25;;;3.35;;
63259;SDS011;49390;51.380;0.098;2023-10-19T10:02:18;13.32;;;3.58;;
63259;SDS011;49390;51.380;0.098;2023-10-19T10:04:53;7.55;;;3.40;;
63259;SDS011;49390;51.380;0.098;2023-10-19T10:07:21;10.98;;;4.22;;
63259;SDS011;49390;51.380;0.098;2023-10-19T10:10:08;9.65;;;3.28;;
63259;SDS011;49390;51.380;0.098;2023-10-19T10:12:37;12.07;;;3.50;;
63259;SDS011;49390;51.380;0.098;2023-10-19T10:15:05;11.13;;;3.25;;
63259;SDS011;49390;51.380;0.098;2023-10-19T10:17:36;9.30;;;2.88;;
63259;SDS011;49390;51.380;0.098;2023-10-19T10:22:41;11.60;;;3.28;;
63259;SDS011;49390;51.380;0.098;2023-10-19T10:25:31;9.48;;;2.97;;
63259;SDS011;49390;51.380;0.098;2023-10-19T10:27:59;13.02;;;3.30;;
63259;SDS011;49390;51.380;0.098;2023-10-19T10:30:30;11.50;;;3.40;;
63259;SDS011;49390;51.380;0.098;2023-10-19T10:32:59;9.43;;;3.17;;
63259;SDS011;49390;51.380;0.098;2023-10-19T10:38:04;8.13;;;2.92;;
63259;SDS011;49390;51.380;0.098;2023-10-19T10:43:12;9.73;;;3.15;;
63259;SDS011;49390;51.380;0.098;2023-10-19T10:45:41;12.13;;;3.22;;
63259;SDS011;49390;51.380;0.098;2023-10-19T10:48:16;12.10;;;3.22;;
63259;SDS011;49390;51.380;0.098;2023-10-19T10:50:50;9.75;;;3.30;;
63259;SDS011;49390;51.380;0.098;2023-10-19T10:53:18;9.18;;;3.40;;
63259;SDS011;49390;51.380;0.098;2023-10-19T10:55:46;12.73;;;3.42;;
63259;SDS011;49390;51.380;0.098;2023-10-19T10:58:15;7.18;;;2.95;;
63259;SDS011;49390;51.380;0.098;2023-10-19T11:00:46;10.35;;;3.50;;
63259;SDS011;49390;51.380;0.098;2023-10-19T11:03:22;7.70;;;3.05;;
63259;SDS011;49390;51.380;0.098;2023-10-19T11:05:52;8.50;;;2.95;;
63259;SDS011;49390;51.380;0.098;2023-10-19T11:08:20;8.93;;;3.13;;
63259;SDS011;49390;51.380;0.098;2023-10-19T11:10:52;14.13;;;3.55;;
63259;SDS011;49390;51.380;0.098;2023-10-19T11:13:24;5.80;;;2.67;;
63259;SDS011;49390;51.380;0.098;2023-10-19T11:15:53;13.63;;;3.40;;
63259;SDS011;49390;51.380;0.098;2023-10-19T11:21:05;10.90;;;3.65;;
63259;SDS011;49390;51.380;0.098;2023-10-19T11:23:47;11.10;;;2.90;;
63259;SDS011;49390;51.380;0.098;2023-10-19T11:26:18;11.82;;;3.88;;
63259;SDS011;49390;51.380;0.098;2023-10-19T11:28:56;10.30;;;3.10;;
63259;SDS011;49390;51.380;0.098;2023-10-19T11:31:26;9.18;;;3.25;;
63259;SDS011;49390;51.380;0.098;2023-10-19T11:33:55;10.88;;;3.20;;
63259;SDS011;49390;51.380;0.098;2023-10-19T11:36:23;10.52;;;3.35;;
63259;SDS011;49390;51.380;0.098;2023-10-19T11:38:54;10.15;;;3.20;;
63259;SDS011;49390;51.380;0.098;2023-10-19T11:41:23;11.32;;;3.35;;
63259;SDS011;49390;51.380;0.098;2023-10-19T11:43:52;11.13;;;3.17;;
63259;SDS011;49390;51.380;0.098;2023-10-19T11:46:24;9.25;;;3.25;;
63259;SDS011;49390;51.380;0.098;2023-10-19T11:48:57;10.70;;;3.00;;
63259;SDS011;49390;51.380;0.098;2023-10-19T11:51:26;10.43;;;3.40;;
63259;SDS011;49390;51.380;0.098;2023-10-19T11:53:54;13.18;;;3.15;;
63259;SDS011;49390;51.380;0.098;2023-10-19T11:56:22;11.30;;;3.63;;
63259;SDS011;49390;51.380;0.098;2023-10-19T11:58:52;11.05;;;3.00;;
63259;SDS011;49390;51.380;0.098;2023-10-19T12:01:21;11.57;;;3.53;;
63259;SDS011;49390;51.380;0.098;2023-10-19T12:03:49;11.88;;;3.58;;
63259;SDS011;49390;51.380;0.098;2023-10-19T12:06:17;13.05;;;3.08;;
63259;SDS011;49390;51.380;0.098;2023-10-19T12:08:51;13.40;;;3.63;;
63259;SDS011;49390;51.380;0.098;2023-10-19T12:11:19;11.23;;;3.33;;
63259;SDS011;49390;51.380;0.098;2023-10-19T12:13:49;10.75;;;2.95;;
63259;SDS011;49390;51.380;0.098;2023-10-19T12:16:17;9.95;;;2.80;;
63259;SDS011;49390;51.380;0.098;2023-10-19T12:18:47;12.13;;;3.33;;
63259;SDS011;49390;51.380;0.098;2023-10-19T12:21:16;8.82;;;2.70;;
63259;SDS011;49390;51.380;0.098;2023-10-19T12:23:55;10.25;;;2.92;;
63259;SDS011;49390;51.380;0.098;2023-10-19T12:26:24;13.68;;;3.25;;
63259;SDS011;49390;51.380;0.098;2023-10-19T12:28:52;8.85;;;3.35;;
63259;SDS011;49390;51.380;0.098;2023-10-19T12:31:20;12.50;;;3.00;;
63259;SDS011;49390;51.380;0.098;2023-10-19T12:33:51;12.97;;;3.10;;
63259;SDS011;49390;51.380;0.098;2023-10-19T12:36:20;14.68;;;3.65;;
63259;SDS011;49390;51.380;0.098;2023-10-19T12:38:55;12.15;;;3.00;;
63259;SDS011;49390;51.380;0.098;2023-10-19T12:41:23;10.25;;;2.83;;
63259;SDS011;49390;51.380;0.098;2023-10-19T12:43:57;12.60;;;2.95;;
63259;SDS011;49390;51.380;0.098;2023-10-19T12:46:28;11.75;;;3.00;;
63259;SDS011;49390;51.380;0.098;2023-10-19T12:48:57;9.95;;;3.03;;
63259;SDS011;49390;51.380;0.098;2023-10-19T12:51:26;11.63;;;2.85;;
63259;SDS011;49390;51.380;0.098;2023-10-19T12:53:54;9.30;;;2.50;;
63259;SDS011;49390;51.380;0.098;2023-10-19T12:56:23;11.90;;;2.45;;
63259;SDS011;49390;51.380;0.098;2023-10-19T12:58:56;9.73;;;2.83;;
63259;SDS011;49390;51.380;0.098;2023-10-19T13:01:24;8.63;;;2.47;;
63259;SDS011;49390;51.380;0.098;2023-10-19T13:03:55;9.73;;;3.10;;
63259;SDS011;49390;51.380;0.098;2023-10-19T13:06:24;10.73;;;3.47;;
63259;SDS011;49390;51.380;0.098;2023-10-19T13:08:56;9.75;;;2.90;;
63259;SDS011;49390;51.380;0.098;2023-10-19T13:11:25;11.05;;;2.90;;
63259;SDS011;49390;51.380;0.098;2023-10-19T13:13:55;8.40;;;2.85;;
63259;SDS011;49390;51.380;0.098;2023-10-19T13:16:23;8.80;;;2.63;;
63259;SDS011;49390;51.380;0.098;2023-10-19T13:19:10;10.18;;;2.45;;
63259;SDS011;49390;51.380;0.098;2023-10-19T13:21:43;8.93;;;2.30;;
63259;SDS011;49390;51.380;0.098;2023-10-19T13:24:11;4.70;;;1.90;;
63259;SDS011;49390;51.380;0.098;2023-10-19T13:26:41;5.93;;;2.00;;
63259;SDS011;49390;51.380;0.098;2023-10-19T13:29:13;8.43;;;2.22;;
63259;SDS011;49390;51.380;0.098;2023-10-19T13:31:45;7.60;;;2.58;;
63259;SDS011;49390;51.380;0.098;2023-10-19T13:34:17;4.22;;;2.17;;
63259;SDS011;49390;51.380;0.098;2023-10-19T13:36:45;6.13;;;2.20;;
63259;SDS011;49390;51.380;0.098;2023-10-19T13:39:16;5.50;;;2.13;;
63259;SDS011;49390;51.380;0.098;2023-10-19T13:41:44;7.00;;;2.47;;
63259;SDS011;49390;51.380;0.098;2023-10-19T13:44:12;6.63;;;2.50;;
63259;SDS011;49390;51.380;0.098;2023-10-19T13:46:41;5.85;;;2.30;;
63259;SDS011;49390;51.380;0.098;2023-10-19T13:49:09;6.32;;;2.92;;
63259;SDS011;49390;51.380;0.098;2023-10-19T13:54:10;7.68;;;2.58;;
63259;SDS011;49390;51.380;0.098;2023-10-19T13:56:38;6.82;;;2.72;;
63259;SDS011;49390;51.380;0.098;2023-10-19T13:59:06;7.22;;;2.83;;
63259;SDS011;49390;51.380;0.098;2023-10-19T14:01:35;6.05;;;2.47;;
63259;SDS011;49390;51.380;0.098;2023-10-19T14:04:03;6.55;;;2.33;;
63259;SDS011;49390;51.380;0.098;2023-10-19T14:06:32;6.65;;;2.13;;
63259;SDS011;49390;51.380;0.098;2023-10-19T14:09:00;9.13;;;2.55;;
63259;SDS011;49390;51.380;0.098;2023-10-19T14:11:29;7.45;;;2.65;;
63259;SDS011;49390;51.380;0.098;2023-10-19T14:13:57;10.90;;;2.72;;
63259;SDS011;49390;51.380;0.098;2023-10-19T14:16:25;7.57;;;2.25;;
63259;SDS011;49390;51.380;0.098;2023-10-19T14:18:54;6.72;;;2.85;;
63259;SDS011;49390;51.380;0.098;2023-10-19T14:21:23;10.00;;;3.50;;
63259;SDS011;49390;51.380;0.098;2023-10-19T14:23:54;11.93;;;3.20;;
63259;SDS011;49390;51.380;0.098;2023-10-19T14:26:24;8.07;;;2.87;;
63259;SDS011;49390;51.380;0.098;2023-10-19T14:28:52;6.10;;;2.35;;
63259;SDS011;49390;51.380;0.098;2023-10-19T14:31:21;8.80;;;2.40;;
63259;SDS011;49390;51.380;0.098;2023-10-19T14:33:51;9.32;;;2.58;;
63259;SDS011;49390;51.380;0.098;2023-10-19T14:36:20;9.90;;;2.40;;
63259;SDS011;49390;51.380;0.098;2023-10-19T14:38:48;8.60;;;2.17;;
63259;SDS011;49390;51.380;0.098;2023-10-19T14:41:16;8.48;;;2.50;;
63259;SDS011;49390;51.380;0.098;2023-10-19T14:43:44;9.30;;;2.97;;
63259;SDS011;49390;51.380;0.098;2023-10-19T14:46:12;7.50;;;2.63;;
63259;SDS011;49390;51.380;0.098;2023-10-19T14:48:40;9.13;;;2.63;;
63259;SDS011;49390;51.380;0.098;2023-10-19T14:51:08;12.05;;;2.60;;
63259;SDS011;49390;51.380;0.098;2023-10-19T14:53:37;9.07;;;2.45;;
63259;SDS011;49390;51.380;0.098;2023-10-19T14:56:05;6.30;;;2.75;;
63259;SDS011;49390;51.380;0.098;2023-10-19T14:58:35;6.28;;;2.38;;
63259;SDS011;49390;51.380;0.098;2023-10-19T15:01:04;7.40;;;2.90;;
63259;SDS011;49390;51.380;0.098;2023-10-19T15:03:35;11.50;;;2.88;;
63259;SDS011;49390;51.380;0.098;2023-10-19T15:06:04;9.73;;;3.15;;
63259;SDS011;49390;51.380;0.098;2023-10-19T15:08:32;9.43;;;2.70;;
63259;SDS011;49390;51.380;0.098;2023-10-19T15:11:00;7.22;;;2.53;;
63259;SDS011;49390;51.380;0.098;2023-10-19T15:13:28;8.13;;;2.83;;
63259;SDS011;49390;51.380;0.098;2023-10-19T15:15:57;7.20;;;3.10;;
63259;SDS011;49390;51.380;0.098;2023-10-19T15:18:34;8.77;;;2.95;;
63259;SDS011;49390;51.380;0.098;2023-10-19T15:21:07;8.65;;;2.97;;
63259;SDS011;49390;51.380;0.098;2023-10-19T15:23:36;7.88;;;2.92;;
63259;SDS011;49390;51.380;0.098;2023-10-19T15:26:04;8.48;;;2.80;;
63259;SDS011;49390;51.380;0.098;2023-10-19T15:28:32;11.65;;;2.88;;